Commerce City, Colorado
Current Conditions -  °F | °C
As of 11:58 AM on Tuesday 21 Oct 2014 (Local Time) from KBKF Reporting Station
Scattered Clouds Scattered Clouds  
Wind Chill: 71°   Ceiling: Unl
Heat Index: 71°   Visibility: 10mi
Dew Point: 36°   Wind: 6mph
Humidity: 27%   Direction: 200°SSW
Pressure: 30.02"   Gusts: NA
Location:  39.81°N, 104.92°W
Report Text: KBKF 211758Z 20005KT 10SM FEW110 SCT220 22/02 A3002 RMK AO2A SLP101 T02190020 10219 20108 58010
Loading
Personal Weather Stations






























Interactive Weather Map
Tropical Storm Tracking
New forecast layout! Learn more

10-Day Weather Forecast

Advertisements
Track Severe Weather on mobile